Time;durP1;ratioP1;P1;durP2;ratioP2;P2;SDS_P1;SDS_P2;PMS_P1;PMS_P2;Temp;Humidity;BMP_temperature;BMP_pressure;BME280_temperature;BME280_humidity;BME280_pressure;Samples;Min_cycle;Max_cycle;Signal;HPM_P1;HPM_P2
2022/10/26 00:02:23;;;;;;;6.38;4.00;;;;;;;9.01;100.00;101375.06;6222732;28;20050;-73
2022/10/26 00:05:25;;;;;;;10.85;3.78;;;;;;;9.00;100.00;101371.59;6222209;28;20076;-73
2022/10/26 00:08:27;;;;;;;14.55;4.15;;;;;;;8.98;100.00;101365.53;6222752;28;20065;-73
2022/10/26 00:11:29;;;;;;;12.75;4.13;;;;;;;8.95;100.00;101376.16;6222326;28;20050;-72
2022/10/26 00:14:30;;;;;;;6.28;4.00;;;;;;;8.93;100.00;101370.09;6222081;28;20394;-73
2022/10/26 00:17:32;;;;;;;13.85;4.28;;;;;;;8.93;100.00;101369.25;6221988;28;20050;-73
2022/10/26 00:20:33;;;;;;;8.02;3.85;;;;;;;8.88;100.00;101374.66;6221756;28;20061;-73
2022/10/26 00:23:36;;;;;;;7.03;3.67;;;;;;;8.86;100.00;101376.50;6222562;28;20410;-73
2022/10/26 00:26:38;;;;;;;6.80;4.07;;;;;;;8.79;100.00;101378.47;6222018;28;20049;-74
2022/10/26 00:29:39;;;;;;;10.48;4.53;;;;;;;8.78;100.00;101373.28;6222492;28;20050;-73
2022/10/26 00:32:41;;;;;;;9.48;4.03;;;;;;;8.80;100.00;101379.31;6221966;28;20050;-73
2022/10/26 00:35:42;;;;;;;8.38;4.38;;;;;;;8.77;100.00;101385.53;6221905;28;20053;-73
2022/10/26 00:38:49;;;;;;;8.13;3.88;;;;;;;8.74;100.00;101377.78;6222190;28;20061;-73
2022/10/26 00:41:51;;;;;;;9.23;4.28;;;;;;;8.71;100.00;101377.03;6222020;28;20057;-73
2022/10/26 00:45:01;;;;;;;6.35;3.88;;;;;;;8.69;100.00;101382.31;6221916;28;20046;-73
2022/10/26 00:48:06;;;;;;;5.60;3.33;;;;;;;8.68;100.00;101377.16;6222133;28;20046;-73
2022/10/26 00:51:13;;;;;;;7.88;4.15;;;;;;;8.61;100.00;101382.59;6221772;28;20104;-73
2022/10/26 00:54:18;;;;;;;7.40;4.28;;;;;;;8.62;100.00;101383.44;6221818;28;20057;-73
2022/10/26 00:57:20;;;;;;;9.40;4.63;;;;;;;8.60;100.00;101386.13;6222071;28;20053;-73
2022/10/26 01:00:21;;;;;;;9.90;4.05;;;;;;;8.56;100.00;101381.91;6221334;28;20061;-73
2022/10/26 01:03:24;;;;;;;7.72;4.18;;;;;;;8.52;100.00;101380.28;6245636;28;20056;-73
2022/10/26 01:06:26;;;;;;;9.68;4.55;;;;;;;8.50;100.00;101379.50;6246044;28;20096;-73
2022/10/26 01:09:29;;;;;;;8.40;3.47;;;;;;;8.52;100.00;101385.53;6246561;28;20062;-73
2022/10/26 01:12:31;;;;;;;11.57;4.75;;;;;;;8.51;100.00;101386.44;6245770;28;20049;-73
2022/10/26 01:15:43;;;;;;;8.40;3.70;;;;;;;8.47;100.00;101378.75;6245911;28;20390;-73
2022/10/26 01:18:54;;;;;;;5.65;3.50;;;;;;;8.45;100.00;101370.94;6246194;28;20045;-73
2022/10/26 01:21:59;;;;;;;9.00;4.10;;;;;;;8.41;100.00;101374.56;6246168;28;20049;-73
2022/10/26 01:25:16;;;;;;;7.75;4.18;;;;;;;8.40;100.00;101375.47;6245711;28;20489;-73
2022/10/26 01:28:35;;;;;;;7.35;4.30;;;;;;;8.37;100.00;101368.59;6246371;28;20049;-73
2022/10/26 01:31:42;;;;;;;8.55;4.57;;;;;;;8.37;100.00;101373.81;6250425;28;20440;-73
2022/10/26 01:34:47;;;;;;;8.00;3.95;;;;;;;8.34;100.00;101365.16;6250552;28;20054;-73
2022/10/26 01:37:56;;;;;;;7.32;3.88;;;;;;;8.33;100.00;101364.31;6250748;28;20512;-73
2022/10/26 01:41:03;;;;;;;8.15;3.50;;;;;;;8.29;100.00;101369.72;6250259;28;20053;-73
2022/10/26 01:44:10;;;;;;;6.43;3.35;;;;;;;8.25;100.00;101362.88;6250275;28;20088;-73
2022/10/26 01:47:15;;;;;;;6.82;3.55;;;;;;;8.27;100.00;101359.31;6250668;28;20060;-73
2022/10/26 01:50:19;;;;;;;7.53;3.25;;;;;;;8.25;100.00;101352.41;6250047;28;20045;-73
2022/10/26 01:53:21;;;;;;;7.78;3.30;;;;;;;8.25;100.00;101348.00;6250546;28;20052;-73
2022/10/26 01:56:26;;;;;;;9.80;4.05;;;;;;;8.27;100.00;101340.13;6250029;28;20053;-73
2022/10/26 01:59:58;;;;;;;12.52;3.80;;;;;;;8.27;100.00;101345.38;6250374;28;20053;-73
2022/10/26 02:03:13;;;;;;;6.40;3.60;;;;;;;8.27;100.00;101342.75;6244699;28;20394;-73
2022/10/26 02:06:19;;;;;;;7.25;3.88;;;;;;;8.31;100.00;101342.59;6249918;28;20085;-73
2022/10/26 02:09:28;;;;;;;8.20;4.38;;;;;;;8.30;100.00;101334.75;6250332;28;20059;-73
2022/10/26 02:12:38;;;;;;;7.97;3.42;;;;;;;8.31;100.00;101332.09;6249728;28;20050;-73
2022/10/26 02:15:48;;;;;;;6.18;3.38;;;;;;;8.33;100.00;101334.66;6249528;28;20402;-73
2022/10/26 02:19:00;;;;;;;9.68;3.53;;;;;;;8.32;100.00;101328.56;6249940;28;20045;-73
2022/10/26 02:22:09;;;;;;;5.93;3.33;;;;;;;8.32;100.00;101322.50;6249504;28;20053;-73
2022/10/26 02:25:17;;;;;;;6.00;3.83;;;;;;;8.36;100.00;101324.09;6249273;28;20056;-73
2022/10/26 02:28:22;;;;;;;6.72;3.33;;;;;;;8.34;100.00;101325.91;6250010;28;20056;-73
2022/10/26 02:31:26;;;;;;;10.23;3.42;;;;;;;8.32;100.00;101323.34;6248997;28;20060;-73
2022/10/26 02:34:31;;;;;;;7.32;3.67;;;;;;;8.33;100.00;101318.94;6249258;28;20041;-73
2022/10/26 02:37:35;;;;;;;9.23;3.42;;;;;;;8.32;100.00;101312.88;6249420;28;20065;-73
2022/10/26 02:40:37;;;;;;;8.68;3.95;;;;;;;8.33;100.00;101311.94;6248345;28;20061;-73
2022/10/26 02:43:45;;;;;;;7.25;3.67;;;;;;;8.33;100.00;101309.31;6247430;28;20053;-73
2022/10/26 02:46:46;;;;;;;5.25;3.85;;;;;;;8.31;100.00;101303.31;6249667;28;20128;-73
2022/10/26 02:49:49;;;;;;;11.93;4.45;;;;;;;8.31;100.00;101299.81;6248696;28;20049;-73
2022/10/26 02:53:01;;;;;;;5.97;3.42;;;;;;;8.30;100.00;101304.19;6248898;28;20460;-73
2022/10/26 02:56:08;;;;;;;13.25;3.88;;;;;;;8.30;100.00;101298.09;6248686;28;20512;-73
2022/10/26 02:59:12;;;;;;;6.30;3.20;;;;;;;8.29;100.00;101296.41;6249286;28;20076;-73
2022/10/26 03:02:16;;;;;;;6.43;3.63;;;;;;;8.29;100.00;101296.41;6248724;28;20060;-73
2022/10/26 03:05:21;;;;;;;11.13;3.83;;;;;;;8.29;100.00;101293.78;6248853;28;20048;-73
2022/10/26 03:08:23;;;;;;;7.78;4.78;;;;;;;8.29;100.00;101296.41;6249121;28;20052;-73
2022/10/26 03:11:25;;;;;;;5.78;3.38;;;;;;;8.29;100.00;101291.16;6248545;28;20076;-73
2022/10/26 03:14:26;;;;;;;4.60;3.03;;;;;;;8.25;100.00;101287.78;6248136;28;20053;-73
2022/10/26 03:17:28;;;;;;;5.82;3.38;;;;;;;8.28;100.00;101286.84;6248443;28;20057;-72
2022/10/26 03:20:31;;;;;;;7.38;3.53;;;;;;;8.30;100.00;101292.88;6248215;28;20095;-73
2022/10/26 03:23:32;;;;;;;6.78;3.90;;;;;;;8.27;100.00;101291.22;6248368;28;20045;-73
2022/10/26 03:26:34;;;;;;;9.77;3.67;;;;;;;8.25;100.00;101286.94;6248024;28;20404;-73
2022/10/26 03:29:35;;;;;;;8.45;3.30;;;;;;;8.25;100.00;101285.16;6248244;28;20128;-73
2022/10/26 03:32:37;;;;;;;8.82;3.35;;;;;;;8.24;100.00;101282.63;6248225;28;20524;-73
2022/10/26 03:35:40;;;;;;;6.57;3.65;;;;;;;8.23;100.00;101279.16;6247735;28;20045;-73
2022/10/26 03:38:41;;;;;;;8.18;3.33;;;;;;;8.22;100.00;101274.81;6248181;28;20053;-72
2022/10/26 03:41:43;;;;;;;5.60;3.10;;;;;;;8.19;100.00;101271.44;6247648;28;20053;-73
2022/10/26 03:44:46;;;;;;;6.47;3.45;;;;;;;8.18;100.00;101273.22;6247635;28;20054;-73
2022/10/26 03:47:48;;;;;;;5.68;3.22;;;;;;;8.16;100.00;101276.78;6247719;28;20077;-73
2022/10/26 03:50:51;;;;;;;5.30;2.97;;;;;;;8.12;100.00;101269.03;6247260;28;20048;-73
2022/10/26 03:53:52;;;;;;;6.05;3.38;;;;;;;8.11;100.00;101272.56;6247101;28;20041;-73
2022/10/26 03:56:54;;;;;;;5.95;3.17;;;;;;;8.07;100.00;101276.19;6247569;28;20057;-73
2022/10/26 03:59:55;;;;;;;6.40;3.45;;;;;;;8.07;100.00;101265.72;6247141;28;20045;-73
2022/10/26 04:02:59;;;;;;;6.60;3.63;;;;;;;8.04;100.00;101262.34;6247452;28;20057;-73
2022/10/26 04:06:03;;;;;;;7.57;3.13;;;;;;;8.03;100.00;101260.66;6247039;28;20049;-72
2022/10/26 04:09:07;;;;;;;5.70;3.35;;;;;;;8.03;100.00;101274.59;6247677;28;20053;-73
2022/10/26 04:12:08;;;;;;;7.75;3.25;;;;;;;8.00;100.00;101269.47;6246725;28;20566;-73
2022/10/26 04:15:10;;;;;;;5.45;3.33;;;;;;;7.97;100.00;101268.72;6246663;28;20049;-73
2022/10/26 04:18:12;;;;;;;7.95;3.33;;;;;;;7.94;100.00;101269.66;6247341;28;20050;-73
2022/10/26 04:21:15;;;;;;;4.55;2.95;;;;;;;7.88;100.00;101265.50;6246476;28;20504;-73
2022/10/26 04:24:16;;;;;;;10.80;3.83;;;;;;;7.86;100.00;101267.31;6246918;28;20045;-73
2022/10/26 04:27:18;;;;;;;8.13;3.13;;;;;;;7.85;100.00;101272.59;6247161;28;20423;-73
2022/10/26 04:30:19;;;;;;;5.70;3.65;;;;;;;7.83;100.00;101269.19;6235972;28;20046;-73
2022/10/26 04:33:21;;;;;;;7.68;3.63;;;;;;;7.80;100.00;101264.91;6222310;28;20061;-73
2022/10/26 04:36:24;;;;;;;6.88;3.47;;;;;;;7.80;100.00;101272.75;6221967;28;20046;-73
2022/10/26 04:39:25;;;;;;;5.50;2.83;;;;;;;7.79;100.00;101273.66;6229764;28;20045;-73
2022/10/26 04:42:26;;;;;;;5.70;3.08;;;;;;;7.77;100.00;101272.00;6232108;28;20136;-73
2022/10/26 04:45:29;;;;;;;6.18;3.28;;;;;;;7.77;100.00;101266.78;6230135;28;20048;-73
2022/10/26 04:48:31;;;;;;;4.35;2.78;;;;;;;7.76;100.00;101271.13;6222380;28;20188;-73
2022/10/26 04:51:33;;;;;;;7.35;3.20;;;;;;;7.74;100.00;101269.50;6221906;28;20069;-73
2022/10/26 04:54:35;;;;;;;5.60;3.40;;;;;;;7.75;100.00;101266.81;6221612;28;20049;-73
2022/10/26 04:57:36;;;;;;;5.25;2.92;;;;;;;7.70;100.00;101263.50;6222222;28;20050;-73
2022/10/26 05:00:38;;;;;;;7.88;3.35;;;;;;;7.67;100.00;101260.97;6221444;28;20056;-73
2022/10/26 05:03:39;;;;;;;5.18;2.97;;;;;;;7.67;100.00;101262.72;6230638;28;20153;-73
2022/10/26 05:06:42;;;;;;;7.68;2.90;;;;;;;7.64;100.00;101261.09;6237055;28;20053;-72
2022/10/26 05:09:43;;;;;;;4.40;2.85;;;;;;;7.65;100.00;101262.81;6237880;28;20046;-73
2022/10/26 05:12:50;;;;;;;5.88;3.20;;;;;;;7.65;100.00;101256.72;6236798;28;20254;-73
2022/10/26 05:15:53;;;;;;;7.82;2.85;;;;;;;7.59;100.00;101260.41;6236148;28;20484;-73
2022/10/26 05:18:54;;;;;;;7.68;3.38;;;;;;;7.57;100.00;101257.81;6238260;28;20124;-73
2022/10/26 05:21:57;;;;;;;7.10;3.30;;;;;;;7.54;100.00;101254.44;6245272;28;20041;-73
2022/10/26 05:24:58;;;;;;;5.60;2.97;;;;;;;7.54;100.00;101257.94;6258722;28;20045;-73
2022/10/26 05:28:01;;;;;;;6.53;2.75;;;;;;;7.56;100.00;101260.47;6261577;28;20049;-73
2022/10/26 05:31:02;;;;;;;9.02;3.05;;;;;;;7.55;100.00;101256.16;6240526;28;20497;-73
2022/10/26 05:34:04;;;;;;;6.55;3.33;;;;;;;7.56;100.00;101247.41;6235156;28;20056;-74
2022/10/26 05:37:06;;;;;;;5.43;2.72;;;;;;;7.59;100.00;101249.94;6235892;28;20060;-73
2022/10/26 05:40:09;;;;;;;8.73;3.47;;;;;;;7.61;100.00;101259.41;6240998;28;20049;-73
2022/10/26 05:43:11;;;;;;;5.43;3.00;;;;;;;7.64;100.00;101266.31;6250560;28;20076;-73
2022/10/26 05:46:12;;;;;;;4.43;2.60;;;;;;;7.65;100.00;101267.19;6250342;28;20050;-73
2022/10/26 05:49:14;;;;;;;5.13;2.80;;;;;;;7.65;100.00;101265.41;6250583;28;20050;-75
2022/10/26 05:52:17;;;;;;;5.25;2.55;;;;;;;7.64;100.00;101271.56;6250287;28;20050;-73
2022/10/26 05:55:19;;;;;;;3.47;2.40;;;;;;;7.63;100.00;101273.31;6250009;28;20049;-75
2022/10/26 05:58:21;;;;;;;7.85;3.30;;;;;;;7.62;100.00;101274.19;6250382;28;20398;-73
2022/10/26 06:01:33;;;;;;;5.63;2.95;;;;;;;7.59;100.00;101278.69;6249881;28;20049;-73
2022/10/26 06:04:38;;;;;;;2.45;1.92;;;;;;;7.58;100.00;101280.44;6250010;28;20045;-73
2022/10/26 06:07:42;;;;;;;8.15;3.40;;;;;;;7.59;100.00;101276.09;6250049;28;20054;-73
2022/10/26 06:10:43;;;;;;;6.00;2.70;;;;;;;7.60;100.00;101280.41;6248426;28;20060;-73
2022/10/26 06:13:45;;;;;;;4.43;2.70;;;;;;;7.58;100.00;101285.66;6235663;28;20418;-73
2022/10/26 06:17:03;;;;;;;6.45;2.80;;;;;;;7.56;100.00;101289.25;6236690;28;20045;-73
2022/10/26 06:20:20;;;;;;;4.90;2.78;;;;;;;7.53;100.00;101287.56;6230302;28;20049;-73
2022/10/26 06:23:40;;;;;;;7.90;2.97;;;;;;;7.54;100.00;101293.66;6234842;28;20055;-72
2022/10/26 06:26:50;;;;;;;8.88;3.38;;;;;;;7.55;100.00;101290.16;6246418;28;20420;-73
2022/10/26 06:29:58;;;;;;;6.40;2.97;;;;;;;7.56;100.00;101297.09;6249426;28;20053;-73
2022/10/26 06:33:00;;;;;;;8.37;3.53;;;;;;;7.58;100.00;101297.88;6231182;28;20390;-73
2022/10/26 06:36:13;;;;;;;6.32;3.25;;;;;;;7.57;100.00;101299.66;6224673;28;20366;-73
2022/10/26 06:39:17;;;;;;;5.53;2.67;;;;;;;7.61;100.00;101301.28;6225548;28;20050;-73
2022/10/26 06:42:19;;;;;;;5.95;2.63;;;;;;;7.63;100.00;101299.47;6234530;28;20417;-73
2022/10/26 06:45:21;;;;;;;6.72;2.65;;;;;;;7.67;100.00;101309.81;6235526;28;20042;-73
2022/10/26 06:48:27;;;;;;;4.57;2.13;;;;;;;7.69;100.00;101308.88;6234502;28;20057;-73
2022/10/26 06:51:30;;;;;;;5.93;2.92;;;;;;;7.72;100.00;101310.53;6234148;28;20052;-73
2022/10/26 06:54:47;;;;;;;5.10;2.70;;;;;;;7.78;100.00;101310.34;6235173;28;20398;-73
2022/10/26 06:57:49;;;;;;;7.05;2.85;;;;;;;7.85;100.00;101309.22;6234225;28;20097;-73
2022/10/26 07:00:54;;;;;;;4.32;2.58;;;;;;;7.95;100.00;101305.41;6230661;28;20053;-73
2022/10/26 07:03:55;;;;;;;4.13;2.47;;;;;;;8.00;100.00;101306.13;6224041;28;20046;-76
2022/10/26 07:06:57;;;;;;;5.10;2.60;;;;;;;8.10;100.00;101311.88;6253603;28;20053;-73
2022/10/26 07:10:00;;;;;;;4.38;2.65;;;;;;;8.22;100.00;101308.84;6267369;28;20398;-73
2022/10/26 07:13:02;;;;;;;5.53;2.30;;;;;;;8.32;100.00;101309.41;6273715;28;20507;-73
2022/10/26 07:16:03;;;;;;;3.47;2.05;;;;;;;8.39;100.00;101309.13;6257174;28;20416;-73
2022/10/26 07:19:05;;;;;;;6.07;2.55;;;;;;;8.48;100.00;101301.88;6246538;28;20050;-72
2022/10/26 07:22:06;;;;;;;3.97;2.42;;;;;;;8.56;100.00;101308.53;6252816;28;20052;-73
2022/10/26 07:25:11;;;;;;;4.10;2.05;;;;;;;8.65;100.00;101309.97;6243330;28;20046;-73
2022/10/26 07:28:12;;;;;;;4.68;2.65;;;;;;;8.76;100.00;101314.81;6247629;28;20050;-73
2022/10/26 07:31:14;;;;;;;4.13;2.42;;;;;;;8.81;100.00;101311.13;6247764;28;20183;-73
2022/10/26 07:34:15;;;;;;;4.55;2.40;;;;;;;8.88;100.00;101307.38;6247827;28;20057;-73
2022/10/26 07:37:17;;;;;;;4.32;2.67;;;;;;;8.96;100.00;101314.94;6248115;28;20049;-73
2022/10/26 07:40:19;;;;;;;4.97;2.10;;;;;;;9.03;100.00;101313.78;6247175;28;20524;-73
2022/10/26 07:43:21;;;;;;;6.50;1.67;;;;;;;9.09;100.00;101317.97;6246692;28;20049;-73
2022/10/26 07:46:23;;;;;;;3.78;2.72;;;;;;;9.14;100.00;101326.50;6247164;28;20045;-73
2022/10/26 07:49:24;;;;;;;3.47;2.47;;;;;;;9.21;100.00;101321.88;6227995;28;20046;-74
2022/10/26 07:52:25;;;;;;;5.15;2.40;;;;;;;9.28;100.00;101331.22;6223077;28;20054;-74
2022/10/26 07:55:28;;;;;;;4.53;2.55;;;;;;;9.35;100.00;101327.44;6228666;28;20056;-74
2022/10/26 07:58:30;;;;;;;3.03;1.73;;;;;;;9.39;100.00;101329.03;6256529;28;20061;-74
2022/10/26 08:01:31;;;;;;;6.93;2.90;;;;;;;9.45;100.00;101336.69;6258220;28;20061;-73
2022/10/26 08:04:32;;;;;;;4.53;2.55;;;;;;;9.52;100.00;101324.16;6261098;28;20049;-74
2022/10/26 08:07:34;;;;;;;4.90;2.50;;;;;;;9.59;100.00;101333.50;6249824;28;20076;-74
2022/10/26 08:10:37;;;;;;;18.80;6.10;;;;;;;9.66;100.00;101337.59;6247440;28;20540;-73
2022/10/26 08:13:38;;;;;;;47.70;17.27;;;;;;;9.72;100.00;101337.34;6224961;28;20050;-73
2022/10/26 08:16:39;;;;;;;65.53;20.85;;;;;;;9.77;100.00;101330.16;6222339;28;20042;-74
2022/10/26 08:19:41;;;;;;;40.85;14.10;;;;;;;9.81;100.00;101338.72;6223072;28;20057;-74
2022/10/26 08:22:42;;;;;;;22.63;8.73;;;;;;;9.86;100.00;101334.16;6222449;28;20061;-74
2022/10/26 08:25:45;;;;;;;14.13;5.28;;;;;;;9.90;100.00;101326.09;6222624;28;20045;-74
2022/10/26 08:28:49;;;;;;;6.63;3.17;;;;;;;9.99;100.00;101321.38;6222395;28;20046;-74
2022/10/26 08:31:50;;;;;;;5.55;2.30;;;;;;;10.02;100.00;101327.34;6224266;28;20062;-74
2022/10/26 08:34:51;;;;;;;3.95;2.50;;;;;;;10.07;100.00;101317.50;6246321;28;20049;-73
2022/10/26 08:37:53;;;;;;;4.82;2.78;;;;;;;10.15;100.00;101320.66;6246683;28;20049;-74
2022/10/26 08:40:57;;;;;;;4.78;2.30;;;;;;;10.26;100.00;101314.13;6245592;28;20497;-74
2022/10/26 08:44:04;;;;;;;4.55;2.50;;;;;;;10.36;100.00;101308.44;6246491;28;20049;-73
2022/10/26 08:47:12;;;;;;;4.72;2.70;;;;;;;10.44;100.00;101307.22;6247079;28;20523;-73
2022/10/26 08:50:23;;;;;;;5.10;2.75;;;;;;;10.49;100.00;101303.50;6261135;28;20049;-73
2022/10/26 08:53:30;;;;;;;5.20;2.53;;;;;;;10.55;100.00;101302.38;6269390;28;20048;-73
2022/10/26 08:56:39;;;;;;;4.75;2.47;;;;;;;10.64;100.00;101299.34;6270865;28;20052;-74
2022/10/26 08:59:46;;;;;;;5.32;2.75;;;;;;;10.69;100.00;101299.97;6267118;28;20049;-73
2022/10/26 09:02:49;;;;;;;4.53;2.63;;;;;;;10.74;100.00;101302.41;6263861;28;20052;-73
2022/10/26 09:06:06;;;;;;;3.28;1.98;;;;;;;10.78;100.00;101301.34;6269431;28;20041;-72
2022/10/26 09:09:13;;;;;;;3.97;2.08;;;;;;;10.79;100.00;101306.50;6246575;28;20148;-73
2022/10/26 09:12:25;;;;;;;3.35;1.95;;;;;;;10.81;100.00;101309.94;6246160;28;20452;-73
2022/10/26 09:15:34;;;;;;;5.15;2.28;;;;;;;10.84;100.00;101304.53;6221243;28;20449;-72
2022/10/26 09:18:48;;;;;;;4.05;2.05;;;;;;;10.88;100.00;101303.47;6222208;28;20057;-73
2022/10/26 09:21:55;;;;;;;6.53;2.53;;;;;;;10.96;100.00;101308.38;6247066;28;20045;-73
2022/10/26 09:25:00;;;;;;;5.50;2.50;;;;;;;11.02;100.00;101307.25;6245717;28;20429;-73
2022/10/26 09:28:03;;;;;;;3.35;2.30;;;;;;;11.09;100.00;101309.53;6239517;28;20046;-72
2022/10/26 09:31:05;;;;;;;3.72;2.33;;;;;;;11.20;100.00;101303.75;6232704;28;20096;-73
2022/10/26 09:34:14;;;;;;;3.25;2.10;;;;;;;11.26;100.00;101303.44;6223533;28;20050;-74
2022/10/26 09:37:19;;;;;;;3.67;1.85;;;;;;;11.34;100.00;101303.09;6221486;28;20516;-74
2022/10/26 09:40:27;;;;;;;2.75;1.90;;;;;;;11.46;100.00;101305.16;6225582;28;20056;-74
2022/10/26 09:43:38;;;;;;;4.95;2.22;;;;;;;11.56;100.00;101302.94;6246079;28;20045;-74
2022/10/26 09:46:46;;;;;;;6.30;3.67;;;;;;;11.66;100.00;101299.75;6245601;28;20057;-72
2022/10/26 09:49:54;;;;;;;5.82;1.90;;;;;;;11.72;100.00;101298.63;6245793;28;20053;-73
2022/10/26 09:52:55;;;;;;;3.30;2.15;;;;;;;11.80;100.00;101303.50;6250402;28;20060;-74
2022/10/26 09:56:04;;;;;;;3.83;2.05;;;;;;;11.93;100.00;101302.00;6249788;28;20056;-73
2022/10/26 09:59:07;;;;;;;3.43;2.17;;;;;;;12.07;100.00;101310.06;6247840;28;20061;-74
2022/10/26 10:02:37;;;;;;;3.42;1.92;;;;;;;12.17;100.00;101313.06;6250062;28;20060;-74
2022/10/26 10:05:39;;;;;;;4.43;1.60;;;;;;;12.30;100.00;101313.31;6249436;28;20060;-74
2022/10/26 10:08:40;;;;;;;4.95;2.10;;;;;;;12.36;100.00;101313.84;6250393;28;20054;-74
2022/10/26 10:11:46;;;;;;;4.38;1.65;;;;;;;12.45;100.00;101307.25;6249485;28;20053;-74
2022/10/26 10:14:59;;;;;;;4.40;1.70;;;;;;;12.57;100.00;101311.00;6249860;28;20096;-73
2022/10/26 10:18:00;;;;;;;2.40;1.63;;;;;;;12.66;100.00;101310.53;6249755;28;20053;-72
2022/10/26 10:21:04;;;;;;;5.95;2.00;;;;;;;12.74;100.00;101299.59;6249759;28;20060;-73
2022/10/26 10:24:26;;;;;;;4.50;2.30;;;;;;;12.80;100.00;101304.53;6249316;28;20435;-74
2022/10/26 10:27:29;;;;;;;6.78;1.83;;;;;;;12.87;100.00;101306.75;6249970;28;20049;-73
2022/10/26 10:30:33;;;;;;;3.40;1.60;;;;;;;12.93;100.00;101316.97;6262966;28;20045;-74
2022/10/26 10:33:37;;;;;;;1.98;1.38;;;;;;;12.98;100.00;101313.22;6274557;28;20049;-74
2022/10/26 10:36:40;;;;;;;4.53;1.60;;;;;;;13.05;100.00;101310.19;6273854;28;20049;-74
2022/10/26 10:39:42;;;;;;;2.05;1.42;;;;;;;13.10;100.00;101313.41;6274266;28;20064;-73
2022/10/26 10:42:45;;;;;;;2.58;1.48;;;;;;;13.11;100.00;101317.75;6249597;28;20060;-73
2022/10/26 10:45:49;;;;;;;7.05;1.42;;;;;;;13.15;100.00;101318.44;6249296;28;20527;-74
2022/10/26 10:48:55;;;;;;;2.75;1.17;;;;;;;13.20;100.00;101319.03;6249448;28;20056;-74
2022/10/26 10:51:57;;;;;;;3.05;1.42;;;;;;;13.23;100.00;101324.19;6248672;28;20497;-74
2022/10/26 10:55:16;;;;;;;2.45;1.17;;;;;;;13.28;100.00;101329.22;6248692;28;20053;-72
2022/10/26 10:58:25;;;;;;;3.65;1.20;;;;;;;13.36;100.00;101335.78;6249074;28;20454;-74
2022/10/26 11:01:32;;;;;;;1.80;1.25;;;;;;;13.43;100.00;101333.63;6248251;28;20060;-74
2022/10/26 11:04:48;;;;;;;3.20;1.30;;;;;;;13.51;100.00;101341.97;6248551;28;20068;-74
2022/10/26 11:07:55;;;;;;;1.20;0.95;;;;;;;13.61;100.00;101342.31;6248944;28;20061;-72
2022/10/26 11:11:00;;;;;;;5.05;1.13;;;;;;;13.75;100.00;101339.72;6248693;28;20079;-74
2022/10/26 11:14:06;;;;;;;4.78;1.52;;;;;;;13.85;100.00;101342.69;6248365;28;20061;-73
2022/10/26 11:17:18;;;;;;;2.08;0.93;;;;;;;13.96;100.00;101346.44;6248208;28;20049;-74
2022/10/26 11:20:24;;;;;;;1.17;0.80;;;;;;;14.10;100.00;101353.56;6248189;28;20485;-73
2022/10/26 11:23:32;;;;;;;1.48;1.05;;;;;;;14.27;100.00;101349.09;6248716;28;20049;-74
2022/10/26 11:26:38;;;;;;;1.77;0.93;;;;;;;14.39;100.00;101351.84;6247963;28;20413;-73
2022/10/26 11:29:47;;;;;;;1.63;1.00;;;;;;;14.46;100.00;101358.47;6255277;28;20049;-73
2022/10/26 11:32:54;;;;;;;3.05;1.42;;;;;;;14.50;100.00;101356.53;6272989;28;20041;-74
2022/10/26 11:35:59;;;;;;;2.65;1.05;;;;;;;14.54;100.00;101354.56;6272763;28;20045;-74
2022/10/26 11:39:10;;;;;;;4.47;1.35;;;;;;;14.58;100.00;101363.97;6272608;28;20057;-74
2022/10/26 11:42:21;;;;;;;5.43;1.10;;;;;;;14.64;100.00;101361.00;6252282;28;20052;-73
2022/10/26 11:45:27;;;;;;;1.75;1.20;;;;;;;14.75;100.00;101363.81;6244847;28;20045;-73
2022/10/26 11:48:36;;;;;;;1.45;0.95;;;;;;;15.01;100.00;101364.03;6261237;28;20049;-74
2022/10/26 11:51:40;;;;;;;2.13;1.27;;;;;;;15.42;100.00;101361.41;6262842;28;20045;-74
2022/10/26 11:54:48;;;;;;;2.35;1.10;;;;;;;15.88;100.00;101363.78;6272165;28;20053;-73
2022/10/26 11:57:51;;;;;;;0.95;0.90;;;;;;;16.12;100.00;101359.47;6268286;28;20045;-73
2022/10/26 12:00:58;;;;;;;1.58;1.10;;;;;;;16.27;100.00;101362.09;6263547;28;20044;-73
2022/10/26 12:04:01;;;;;;;3.30;1.40;;;;;;;16.33;100.00;101351.06;6272048;28;20519;-73
2022/10/26 12:07:09;;;;;;;1.38;0.93;;;;;;;16.30;100.00;101343.28;6272025;28;20426;-74
2022/10/26 12:10:21;;;;;;;2.72;1.30;;;;;;;16.07;100.00;101347.50;6252117;28;20064;-72
2022/10/26 12:13:30;;;;;;;1.55;1.17;;;;;;;15.99;100.00;101355.97;6247352;28;20441;-73
2022/10/26 12:16:46;;;;;;;2.63;1.42;;;;;;;16.01;100.00;101353.22;6254134;28;20124;-73
2022/10/26 12:19:55;;;;;;;1.65;0.98;;;;;;;15.99;100.00;101358.63;6257356;28;20052;-73
2022/10/26 12:22:57;;;;;;;2.65;1.30;;;;;;;15.98;100.00;101354.25;6243771;28;20060;-73
2022/10/26 12:26:32;;;;;;;1.35;0.80;;;;;;;15.94;100.00;101358.06;6250654;28;20045;-74
2022/10/26 12:29:39;;;;;;;5.00;1.00;;;;;;;15.96;100.00;101362.31;6255958;28;20060;-73
2022/10/26 12:32:52;;;;;;;3.88;1.10;;;;;;;16.11;100.00;101363.09;6271848;28;20051;-73
2022/10/26 12:35:55;;;;;;;1.88;0.88;;;;;;;16.29;100.00;101376.09;6271231;28;20520;-74
2022/10/26 12:39:01;;;;;;;2.13;1.15;;;;;;;16.39;100.00;101371.84;6271846;28;20052;-74
2022/10/26 12:42:26;;;;;;;5.05;0.80;;;;;;;16.51;100.00;101376.34;6270815;28;20048;-74
2022/10/26 12:45:28;;;;;;;2.47;0.80;;;;;;;16.65;100.00;101370.91;6271153;28;20493;-74
2022/10/26 12:48:39;;;;;;;2.15;1.00;;;;;;;16.74;100.00;101374.78;6271706;28;20060;-74
2022/10/26 12:51:45;;;;;;;2.47;1.10;;;;;;;16.85;100.00;101374.03;6271041;28;20049;-73
2022/10/26 12:55:02;;;;;;;2.20;1.17;;;;;;;17.03;100.00;101363.91;6271383;28;20408;-78
2022/10/26 12:58:23;;;;;;;3.92;1.23;;;;;;;17.20;100.00;101355.63;6271308;28;20049;-75
2022/10/26 13:01:43;;;;;;;3.53;1.10;;;;;;;17.39;100.00;101355.13;6269206;28;20060;-73
2022/10/26 13:05:17;;;;;;;0.77;0.70;;;;;;;17.49;100.00;101345.56;6270823;28;20049;-74
2022/10/26 13:08:20;;;;;;;5.13;0.80;;;;;;;17.61;100.00;101351.78;6264387;28;20049;-74
2022/10/26 13:11:28;;;;;;;1.42;0.60;;;;;;;17.70;100.00;101351.94;6270646;28;20390;-74
2022/10/26 13:14:34;;;;;;;2.90;1.10;;;;;;;17.77;100.00;101351.53;6271087;28;20053;-74
2022/10/26 13:17:36;;;;;;;2.55;1.23;;;;;;;17.74;100.00;101356.09;6271113;28;20306;-74
2022/10/26 13:20:53;;;;;;;2.20;1.17;;;;;;;17.73;100.00;101362.38;6268964;28;20146;-74
2022/10/26 13:24:04;;;;;;;0.88;0.68;;;;;;;17.81;100.00;101353.00;6270616;28;20045;-74
2022/10/26 13:27:40;;;;;;;2.47;0.90;;;;;;;17.90;100.00;101349.66;6274817;28;20408;-74
2022/10/26 13:30:47;;;;;;;1.40;0.73;;;;;;;18.01;100.00;101347.03;6275610;28;20063;-74
2022/10/26 13:33:51;;;;;;;1.67;0.77;;;;;;;18.15;100.00;101338.88;6275308;28;20045;-74
2022/10/26 13:37:01;;;;;;;1.02;0.80;;;;;;;18.21;100.00;101351.72;6275802;28;20041;-74
2022/10/26 13:40:06;;;;;;;1.33;0.80;;;;;;;18.28;100.00;101348.59;6275099;28;20424;-74
2022/10/26 13:43:16;;;;;;;1.25;0.85;;;;;;;18.22;100.00;101348.09;6275603;28;20060;-74
2022/10/26 13:46:34;;;;;;;1.02;0.63;;;;;;;18.17;100.00;101346.75;6275188;28;20045;-74
2022/10/26 13:49:39;;;;;;;1.52;0.77;;;;;;;18.16;100.00;101361.00;6275524;28;20045;-73
2022/10/26 13:52:43;;;;;;;3.90;0.82;;;;;;;18.07;100.00;101361.69;6275230;28;20056;-74
2022/10/26 13:55:51;;;;;;;1.10;0.57;;;;;;;18.00;100.00;101367.47;6275048;28;20053;-74
2022/10/26 13:58:59;;;;;;;2.10;0.93;;;;;;;17.94;100.00;101373.25;6275553;28;20511;-74
2022/10/26 14:02:08;;;;;;;1.50;0.80;;;;;;;17.95;100.00;101376.75;6274960;28;20056;-74
2022/10/26 14:05:11;;;;;;;;;;;;;;;17.85;100.00;101379.25;6275118;28;20048;-74
2022/10/26 14:08:17;;;;;;;1.52;0.50;;;;;;;17.69;100.00;101371.53;6275268;28;19921;-74
2022/10/26 14:11:22;;;;;;;1.65;0.60;;;;;;;17.57;100.00;101374.22;6274396;28;20060;-74
2022/10/26 14:14:28;;;;;;;3.92;0.80;;;;;;;17.48;100.00;101381.88;6274724;28;20053;-74
2022/10/26 14:17:29;;;;;;;0.82;0.50;;;;;;;17.34;100.00;101387.34;6274574;28;20048;-74
2022/10/26 14:20:32;;;;;;;1.25;0.93;;;;;;;17.30;100.00;101385.88;6274521;28;20071;-74